Truth — WYV5559 — position and weather

sailwx.info

Track history (hours):
 
Tides and Currents Weather Stations Pressure Air Temp Water Temp Dewpoint Dewpoint Depression Visibility Wind Speed Wind Dir Waves Ship Positions

Truth

Owner: TRUTH AQUATIES INC, SANTA BARBARA, CA. More information available from US FCC via Universal Licensing System and Coast Guard Vessel Documentation Center.

Last reported at 2017-Apr-23 11:40 UTC. Time now 2017-Apr-23 15:57 UTC.
Position N 34°24' W 119°42'.

Length 22 m.

Type: Diving. MMSI: 367384840.

Date/timePositionNaut miles runAvg speedWind from/ knotsBaromVisibWave heightAir tempDewpointWater temp
2017-Apr-23 11:40N 34°24' W 119°42'0 0.0
2017-Apr-23 11:10N 34°24' W 119°42'0 0.0
2017-Apr-23 10:52N 34°24' W 119°42'0 0.0
2017-Apr-23 04:46N 34°24' W 119°42'0 0.0
2017-Apr-22 19:04N 34°24' W 119°42'0 0.0
2017-Apr-22 17:34N 34°24' W 119°42'0 0.0
2017-Apr-22 16:04N 34°24' W 119°42'0 0.0
2017-Apr-22 15:34N 34°24' W 119°42'0 0.0
2017-Apr-22 13:49N 34°24' W 119°42'0 0.0
2017-Apr-22 09:22N 34°24' W 119°42'0 0.0
2017-Apr-22 06:55N 34°24' W 119°42'0 0.0
2017-Apr-22 06:10N 34°24' W 119°42'0 0.0
2017-Apr-22 05:52N 34°24' W 119°42'0 0.0
2017-Apr-22 04:19N 34°24' W 119°41'0 0.0
2017-Apr-22 03:55N 34°24' W 119°41'0 0.0
2017-Apr-22 01:40N 34°24' W 119°42'0 0.0
2017-Apr-21 18:59N 34°24' W 119°42'0 0.0
2017-Apr-21 18:08N 34°24' W 119°42'0 0.0
2017-Apr-21 17:50N 34°24' W 119°42'0 0.0
2017-Apr-21 14:47N 34°24' W 119°42'0 0.0
2017-Apr-21 06:14N 34°24' W 119°42'0 0.0
2017-Apr-21 04:56N 34°24' W 119°42'2 1.5
2017-Apr-21 03:45N 34°23' W 119°40'3 8.4
2017-Apr-21 03:26N 34°23' W 119°37'1 1.9
2017-Apr-21 02:59N 34°22' W 119°36'3 4.5
2017-Apr-21 02:22N 34°22' W 119°39'3 7.8
2017-Apr-21 02:00N 34°23' W 119°42'1 2.4
2017-Apr-21 01:22N 34°24' W 119°41'1 0.5
2017-Apr-20 23:58N 34°24' W 119°42'0 0.0
2017-Apr-20 21:46N 34°24' W 119°42'0 0.0
2017-Apr-20 18:55N 34°24' W 119°42'0 0.0
2017-Apr-20 08:10N 34°24' W 119°42'0 0.0
2017-Apr-20 06:58N 34°24' W 119°42'0 0.0
2017-Apr-20 04:32N 34°24' W 119°41'0 0.0
2017-Apr-19 22:23N 34°24' W 119°42'0 0.0
2017-Apr-19 17:41N 34°24' W 119°41'0 0.0
2017-Apr-19 15:35N 34°24' W 119°42'0 0.0
2017-Apr-19 09:26N 34°24' W 119°42'0 0.0
2017-Apr-19 07:29N 34°24' W 119°42'0 0.0
2017-Apr-18 14:59N 34°24' W 119°42'0 0.0
2017-Apr-18 12:17N 34°24' W 119°42'0 0.0
2017-Apr-18 11:17N 34°24' W 119°42'0 0.0
2017-Apr-18 10:53N 34°24' W 119°42'0 0.0
2017-Apr-18 10:29N 34°24' W 119°42'0 0.0
2017-Apr-18 09:47N 34°24' W 119°42'0 0.0
2017-Apr-18 09:14N 34°24' W 119°42'0 0.0
2017-Apr-18 08:53N 34°24' W 119°42'0 0.0
2017-Apr-17 02:41N 34°24' W 119°42'0 0.0
2017-Apr-17 02:29N 34°24' W 119°42'0 0.0
2017-Apr-17 01:59N 34°24' W 119°42'0 0.0
2017-Apr-17 00:47N 34°24' W 119°42'0 0.0
2017-Apr-17 00:23N 34°24' W 119°42'0 0.0
2017-Apr-16 20:08N 34°24' W 119°42'0 0.0
2017-Apr-16 18:29N 34°24' W 119°42'0 0.0
2017-Apr-16 17:26N 34°24' W 119°42'0 0.0
2017-Apr-16 16:59N 34°24' W 119°42'0 0.0
2017-Apr-16 16:05N 34°24' W 119°42'0 0.0
2017-Apr-16 15:53N 34°24' W 119°42'0 0.0
2017-Apr-16 13:56N 34°24' W 119°42'0 0.0
2017-Apr-16 13:26N 34°24' W 119°42'0 0.0
2017-Apr-16 12:41N 34°24' W 119°42'0 0.0
2017-Apr-16 12:29N 34°24' W 119°42'0 0.0
2017-Apr-16 11:17N 34°24' W 119°42'0 0.0
2017-Apr-16 05:17N 34°24' W 119°42'0 0.0
2017-Apr-16 01:53N 34°24' W 119°42'0 0.0
2017-Apr-16 01:11N 34°24' W 119°42'0 1.1
2017-Apr-16 00:58N 34°25' W 119°41'4 9.3
2017-Apr-16 00:29N 34°21' W 119°45'5 9.9
2017-Apr-15 23:59N 34°18' W 119°50'610.1
2017-Apr-15 23:25N 34°15' W 119°55'410.3
2017-Apr-15 23:01N 34°12' W 119°59'610.4
2017-Apr-15 22:28N 34°09' W 120°05'510.3
2017-Apr-15 21:57N 34°05' W 120°10'510.5
2017-Apr-15 21:30N 34°03' W 120°14'5 0.8
2017-Apr-15 15:28N 34°00' W 120°19'3 7.3
2017-Apr-15 15:00N 34°03' W 120°17'5 9.7
2017-Apr-15 14:29N 34°08' W 120°18'9 9.5
2017-Apr-15 13:30N 34°18' W 120°20'5 9.6
2017-Apr-15 13:00N 34°22' W 120°21'4 8.2
2017-Apr-15 12:30N 34°26' W 120°20'5 9.6
2017-Apr-15 12:00N 34°27' W 120°14'5 9.6
2017-Apr-15 11:30N 34°28' W 120°09'5 9.8
2017-Apr-15 10:59N 34°27' W 120°02'510.0
2017-Apr-15 10:30N 34°25' W 119°57'5 9.9
2017-Apr-15 10:00N 34°24' W 119°51'5 9.6
2017-Apr-15 09:27N 34°23' W 119°45'3 0.5
2017-Apr-15 02:52N 34°24' W 119°42'0 0.0
2017-Apr-14 19:43N 34°24' W 119°42'0 0.0
2017-Apr-14 19:25N 34°24' W 119°42'0 0.0
2017-Apr-14 17:07N 34°24' W 119°42'0 0.0
2017-Apr-14 11:28N 34°24' W 119°42'0 0.0
2017-Apr-14 10:46N 34°24' W 119°42'0 0.0
2017-Apr-14 09:49N 34°24' W 119°42'0 0.0
2017-Apr-14 09:28N 34°24' W 119°42'0 0.0
2017-Apr-14 07:55N 34°24' W 119°42'0 0.0
2017-Apr-13 22:25N 34°24' W 119°42'0 0.0
2017-Apr-13 21:43N 34°24' W 119°42'  
Track history (hours):
 
Tides and Currents Weather Stations Pressure Air Temp Water Temp Dewpoint Dewpoint Depression Visibility Wind Speed Wind Dir Waves Ship Positions

Truth

Owner: TRUTH AQUATIES INC, SANTA BARBARA, CA. More information available from US FCC via Universal Licensing System and Coast Guard Vessel Documentation Center.

Last reported at 2017-Apr-23 11:40 UTC. Time now 2017-Apr-23 15:57 UTC.
Position N 34°24' W 119°42'.

Length 22 m.

Type: Diving. MMSI: 367384840.

Date/timePositionNaut miles runAvg speedWind from/ knotsBaromVisibWave heightAir tempDewpointWater temp
2017-Apr-23 11:40N 34°24' W 119°42'0 0.0
2017-Apr-23 11:10N 34°24' W 119°42'0 0.0
2017-Apr-23 10:52N 34°24' W 119°42'0 0.0
2017-Apr-23 04:46N 34°24' W 119°42'0 0.0
2017-Apr-22 19:04N 34°24' W 119°42'0 0.0
2017-Apr-22 17:34N 34°24' W 119°42'0 0.0
2017-Apr-22 16:04N 34°24' W 119°42'0 0.0
2017-Apr-22 15:34N 34°24' W 119°42'0 0.0
2017-Apr-22 13:49N 34°24' W 119°42'0 0.0
2017-Apr-22 09:22N 34°24' W 119°42'0 0.0
2017-Apr-22 06:55N 34°24' W 119°42'0 0.0
2017-Apr-22 06:10N 34°24' W 119°42'0 0.0
2017-Apr-22 05:52N 34°24' W 119°42'0 0.0
2017-Apr-22 04:19N 34°24' W 119°41'0 0.0
2017-Apr-22 03:55N 34°24' W 119°41'0 0.0
2017-Apr-22 01:40N 34°24' W 119°42'0 0.0
2017-Apr-21 18:59N 34°24' W 119°42'0 0.0
2017-Apr-21 18:08N 34°24' W 119°42'0 0.0
2017-Apr-21 17:50N 34°24' W 119°42'0 0.0
2017-Apr-21 14:47N 34°24' W 119°42'0 0.0
2017-Apr-21 06:14N 34°24' W 119°42'0 0.0
2017-Apr-21 04:56N 34°24' W 119°42'2 1.5
2017-Apr-21 03:45N 34°23' W 119°40'3 8.4
2017-Apr-21 03:26N 34°23' W 119°37'1 1.9
2017-Apr-21 02:59N 34°22' W 119°36'3 4.5
2017-Apr-21 02:22N 34°22' W 119°39'3 7.8
2017-Apr-21 02:00N 34°23' W 119°42'1 2.4
2017-Apr-21 01:22N 34°24' W 119°41'1 0.5
2017-Apr-20 23:58N 34°24' W 119°42'0 0.0
2017-Apr-20 21:46N 34°24' W 119°42'0 0.0
2017-Apr-20 18:55N 34°24' W 119°42'0 0.0
2017-Apr-20 08:10N 34°24' W 119°42'0 0.0
2017-Apr-20 06:58N 34°24' W 119°42'0 0.0
2017-Apr-20 04:32N 34°24' W 119°41'0 0.0
2017-Apr-19 22:23N 34°24' W 119°42'0 0.0
2017-Apr-19 17:41N 34°24' W 119°41'0 0.0
2017-Apr-19 15:35N 34°24' W 119°42'0 0.0
2017-Apr-19 09:26N 34°24' W 119°42'0 0.0
2017-Apr-19 07:29N 34°24' W 119°42'0 0.0
2017-Apr-18 14:59N 34°24' W 119°42'0 0.0
2017-Apr-18 12:17N 34°24' W 119°42'0 0.0
2017-Apr-18 11:17N 34°24' W 119°42'0 0.0
2017-Apr-18 10:53N 34°24' W 119°42'0 0.0
2017-Apr-18 10:29N 34°24' W 119°42'0 0.0
2017-Apr-18 09:47N 34°24' W 119°42'0 0.0
2017-Apr-18 09:14N 34°24' W 119°42'0 0.0
2017-Apr-18 08:53N 34°24' W 119°42'0 0.0
2017-Apr-17 02:41N 34°24' W 119°42'0 0.0
2017-Apr-17 02:29N 34°24' W 119°42'0 0.0
2017-Apr-17 01:59N 34°24' W 119°42'0 0.0
2017-Apr-17 00:47N 34°24' W 119°42'0 0.0
2017-Apr-17 00:23N 34°24' W 119°42'0 0.0
2017-Apr-16 20:08N 34°24' W 119°42'0 0.0
2017-Apr-16 18:29N 34°24' W 119°42'0 0.0
2017-Apr-16 17:26N 34°24' W 119°42'0 0.0
2017-Apr-16 16:59N 34°24' W 119°42'0 0.0
2017-Apr-16 16:05N 34°24' W 119°42'0 0.0
2017-Apr-16 15:53N 34°24' W 119°42'0 0.0
2017-Apr-16 13:56N 34°24' W 119°42'0 0.0
2017-Apr-16 13:26N 34°24' W 119°42'0 0.0
2017-Apr-16 12:41N 34°24' W 119°42'0 0.0
2017-Apr-16 12:29N 34°24' W 119°42'0 0.0
2017-Apr-16 11:17N 34°24' W 119°42'0 0.0
2017-Apr-16 05:17N 34°24' W 119°42'0 0.0
2017-Apr-16 01:53N 34°24' W 119°42'0 0.0
2017-Apr-16 01:11N 34°24' W 119°42'0 1.1
2017-Apr-16 00:58N 34°25' W 119°41'4 9.3
2017-Apr-16 00:29N 34°21' W 119°45'5 9.9
2017-Apr-15 23:59N 34°18' W 119°50'610.1
2017-Apr-15 23:25N 34°15' W 119°55'410.3
2017-Apr-15 23:01N 34°12' W 119°59'610.4
2017-Apr-15 22:28N 34°09' W 120°05'510.3
2017-Apr-15 21:57N 34°05' W 120°10'510.5
2017-Apr-15 21:30N 34°03' W 120°14'5 0.8
2017-Apr-15 15:28N 34°00' W 120°19'3 7.3
2017-Apr-15 15:00N 34°03' W 120°17'5 9.7
2017-Apr-15 14:29N 34°08' W 120°18'9 9.5
2017-Apr-15 13:30N 34°18' W 120°20'5 9.6
2017-Apr-15 13:00N 34°22' W 120°21'4 8.2
2017-Apr-15 12:30N 34°26' W 120°20'5 9.6
2017-Apr-15 12:00N 34°27' W 120°14'5 9.6
2017-Apr-15 11:30N 34°28' W 120°09'5 9.8
2017-Apr-15 10:59N 34°27' W 120°02'510.0
2017-Apr-15 10:30N 34°25' W 119°57'5 9.9
2017-Apr-15 10:00N 34°24' W 119°51'5 9.6
2017-Apr-15 09:27N 34°23' W 119°45'3 0.5
2017-Apr-15 02:52N 34°24' W 119°42'0 0.0
2017-Apr-14 19:43N 34°24' W 119°42'0 0.0
2017-Apr-14 19:25N 34°24' W 119°42'0 0.0
2017-Apr-14 17:07N 34°24' W 119°42'0 0.0
2017-Apr-14 11:28N 34°24' W 119°42'0 0.0
2017-Apr-14 10:46N 34°24' W 119°42'0 0.0
2017-Apr-14 09:49N 34°24' W 119°42'0 0.0
2017-Apr-14 09:28N 34°24' W 119°42'0 0.0
2017-Apr-14 07:55N 34°24' W 119°42'0 0.0
2017-Apr-13 22:25N 34°24' W 119°42'0 0.0
2017-Apr-13 21:43N 34°24' W 119°42'  

Dump ship's entire track history